• Join FlightAware (Why Join?)
  • Login
  • US Flag GB Flag 
15:34 EDT


 

Airport Tracker/Info


-or-


 

Live Flight TrackerFlight Track Log ✈ N421W ✈ 16-May-2013 ✈ KRHV - KRNO

Flight Track Log - Related Links

Times and Time Zones

All times are in EDT time to prevent confusion due to time zone crossing. See the N421W flight status page for this flight to view local times or setup timezone preferences in your user account.

Time Position Orientation Groundspeed Altitude Reporting Facility
EDT Latitude Longitude Course Direction KTS MPH feet Rate Location/Type
15:38 37.3667 -121.8667 22° Northeast 123 142 1,300  Level Northern Cal TRACON
15:39 37.3833 -121.9000 302° West 129 148 2,300 1,080 Climbing Northern Cal TRACON
15:40 37.4167 -121.8833 22° Northeast 133 153 3,500 1,200 Climbing Northern Cal TRACON
15:41 37.4500 -121.8667 22° Northeast 123 142 4,800 660 Climbing Northern Cal TRACON
15:42 37.5000 -121.8500 15° North 164 189 4,900 480 Climbing Northern Cal TRACON
15:42 37.5333 -121.8333 22° Northeast 157 181 5,800 840 Climbing Northern Cal TRACON
15:43 37.5434 -121.8283 22° Northeast  Level FlightAware Approximate
15:44 37.5833 -121.8167 15° North 158 182 6,600  Level Northern Cal TRACON
15:45 37.6167 -121.8000 22° Northeast 166 191 7,300 720 Climbing Northern Cal TRACON
15:46 37.6667 -121.7833 15° North 160 184 8,200 720 Climbing Northern Cal TRACON
15:47 37.7167 -121.7833 360° North 161 185 8,900 600 Climbing Northern Cal TRACON
15:48 37.7667 -121.7667 15° North 168 193 9,500 600 Climbing Northern Cal TRACON
15:49 37.8000 -121.7500 22° Northeast 172 198 10,200 540 Climbing Northern Cal TRACON
15:50 37.8500 -121.7333 15° North 178 205 10,600 480 Climbing Northern Cal TRACON
15:51 37.9000 -121.7167 15° North 180 207 11,200 480 Climbing Northern Cal TRACON
15:51 37.9072 -121.7156 North 179 206 11,300 720 Climbing Oakland Center
15:52 37.9653 -121.6981 13° North 179 206 12,200 660 Climbing Oakland Center
15:53 38.0139 -121.6833 13° North 180 207 12,700 480 Climbing Oakland Center
15:54 38.0642 -121.6689 13° North 183 211 13,300 60 Climbing Oakland Center
15:55 38.1178 -121.6497 16° North 196 226 12,900 -240 Descending Oakland Center
15:56 38.1775 -121.6311 14° North 214 246 12,900 60 Level Oakland Center
15:57 38.2167 -121.6167 16° North 203 234 13,000 60 Climbing Northern Cal TRACON
15:58 38.2667 -121.6000 15° North 198 228 13,000  Level Northern Cal TRACON
15:59 38.3167 -121.5833 15° North 200 230 13,000  Level Northern Cal TRACON
16:00 38.3833 -121.5667 11° North 203 234 13,000  Level Northern Cal TRACON
16:01 38.4333 -121.5500 15° North 199 229 13,000  Level Northern Cal TRACON
16:02 38.4833 -121.5167 28° Northeast 205 236 13,000  Level Northern Cal TRACON
16:03 38.5333 -121.4667 38° Northeast 206 237 13,000  Level Northern Cal TRACON
16:04 38.5667 -121.4167 50° Northeast 202 232 13,000 240 Level Northern Cal TRACON
16:05 38.6167 -121.3833 28° Northeast 170 196 13,500 420 Climbing Northern Cal TRACON
16:06 38.6333 -121.3333 67° East 175 201 13,900 480 Climbing Northern Cal TRACON
16:07 38.7000 -121.3000 21° North 182 209 14,500 540 Climbing Northern Cal TRACON
16:08 38.7333 -121.2500 49° Northeast 175 201 15,000 180 Climbing Northern Cal TRACON
16:09 38.8069 -121.1853 34° Northeast 202 232 15,000  Level Oakland Center
16:10 38.8547 -121.1386 37° Northeast 211 243 15,000  Level Oakland Center
16:11 38.9017 -121.0911 38° Northeast 214 246 15,000  Level Oakland Center
16:12 38.9500 -121.0428 38° Northeast 217 250 15,000  Level Oakland Center
16:13 38.9969 -120.9961 38° Northeast 215 247 15,000  Level Oakland Center
16:15 39.0442 -120.9478 38° Northeast 216 249 15,000 480 Level Oakland Center
16:16 39.0933 -120.8992 37° Northeast 199 229 16,100 720 Climbing Oakland Center
16:17 39.1319 -120.8603 38° Northeast 184 212 16,500 360 Climbing Oakland Center
16:18 39.1767 -120.8164 37° Northeast 190 219 16,900 180 Climbing Oakland Center
16:19 39.2228 -120.7667 40° Northeast 203 234 16,900  Level Oakland Center
16:20 39.2725 -120.7169 38° Northeast 215 247 16,900  Level Oakland Center
16:21 39.3233 -120.6658 38° Northeast 224 258 16,900  Level Oakland Center
16:22 39.3583 -120.5967 57° Northeast 237 273 16,900  Level Oakland Center
16:23 39.3703 -120.5142 79° East 236 272 16,900  Level Oakland Center
16:24 39.3858 -120.4342 76° East 233 268 16,900  Level Oakland Center
16:25 39.4033 -120.3347 77° East 235 270 16,900  Level Oakland Center
16:26 39.4194 -120.2544 75° East 232 267 16,900 -240 Level Oakland Center
16:27 39.4350 -120.1708 76° East 240 276 16,500 -600 Descending Oakland Center
16:28 39.4625 -120.0958 65° Northeast 255 293 15,700 -900 Descending Oakland Center
16:29 39.4492 -120.0650 119° Southeast 222 255 14,700 -2,640 Descending Oakland Center
16:30 39.4711 -120.0428 38° Northeast 123 142 10,400 -4,200 Descending Oakland Center
16:32 39.4676 -119.9568 93° East  Level FlightAware Approximate
16:39 39.4833 -119.7667 247° West  Level FlightAware Approximate
16:40 39.4991 -119.7681 247° West  Level Estimated
16:41 39.4991 -119.7681 247° West  Level Estimated
16:42 39.4991 -119.7681 247° West  Level Estimated